Terminal Aerodrome Forecast
Issued by NWS Chicago, IL

Home | Current Version | Previous Version | Text Only | Print | Product List | Glossary Off
Versions: 1 2 3 4 5 6 7 8 9 10 11 12 13 14 15 16 17 18 19 20 21 22 23 24 25 26 27 28 29

000
FTUS43 KLOT 281504 AAA
TAFRFD
TAF AMD
KRFD 281504Z 2815/2912 07007KT P6SM BKN080
     FM282000 12008KT P6SM -SHRA OVC035
     FM290200 05008KT 6SM BR SCT008 OVC012
     FM290900 04013G20KT 6SM BR SCT007 OVC010=

USA.gov is the U.S. government's official web portal to all federal, state and local government web resources and services.